Time;durP1;ratioP1;P1;durP2;ratioP2;P2;SDS_P1;SDS_P2;PMS_P1;PMS_P2;Temp;Humidity;BMP_temperature;BMP_pressure;BME280_temperature;BME280_humidity;BME280_pressure;Samples;Min_cycle;Max_cycle;Signal;HPM_P1;HPM_P2
2022/09/10 00:00:46;;;;;;;13.75;6.90;;;;;;;16.50;67.74;100813.25;5203306;28;20385;-42
2022/09/10 00:03:19;;;;;;;22.73;9.02;;;;;;;16.46;67.50;100812.00;5205199;28;20044;-39
2022/09/10 00:05:53;;;;;;;15.77;8.18;;;;;;;16.51;67.57;100814.13;5201053;28;20361;-41
2022/09/10 00:08:25;;;;;;;20.75;9.43;;;;;;;16.48;67.68;100804.66;5202099;28;20086;-43
2022/09/10 00:11:03;;;;;;;19.27;8.50;;;;;;;16.48;67.54;100803.84;5205927;28;20052;-39
2022/09/10 00:13:38;;;;;;;12.15;7.65;;;;;;;16.36;67.60;100800.84;5202576;28;20044;-41
2022/09/10 00:16:14;;;;;;;19.95;9.23;;;;;;;16.46;67.62;100812.00;5202568;28;20365;-40
2022/09/10 00:18:48;;;;;;;10.10;6.78;;;;;;;16.47;67.63;100808.31;5200190;28;20049;-43
2022/09/10 00:21:22;;;;;;;17.90;7.90;;;;;;;16.45;67.53;100805.03;5205165;28;20080;-45
2022/09/10 00:23:55;;;;;;;22.17;6.18;;;;;;;16.45;67.71;100799.69;5192698;28;20522;-46
2022/09/10 00:26:30;;;;;;;12.98;8.07;;;;;;;16.46;67.70;100814.66;5202571;28;20492;-39
2022/09/10 00:29:04;;;;;;;15.10;8.90;;;;;;;16.50;67.51;100810.59;5202751;28;20435;-41
2022/09/10 00:31:38;;;;;;;13.85;8.27;;;;;;;16.49;67.53;100811.63;5201455;28;20036;-43
2022/09/10 00:34:13;;;;;;;16.60;8.52;;;;;;;16.44;67.50;100802.53;5201566;28;20394;-45
2022/09/10 00:36:46;;;;;;;12.13;8.80;;;;;;;16.54;67.62;100819.91;5205111;28;20406;-50
2022/09/10 00:39:20;;;;;;;16.70;7.82;;;;;;;16.52;67.69;100821.91;5201639;28;20393;-44
2022/09/10 00:41:56;;;;;;;25.10;9.27;;;;;;;16.51;67.58;100814.13;5191792;28;20457;-42
2022/09/10 00:45:02;;;;;;;15.27;7.80;;;;;;;16.55;67.58;100821.53;5201197;28;20497;-44
2022/09/10 00:47:37;;;;;;;18.13;10.88;;;;;;;16.54;67.53;100822.56;5199832;28;20144;-42
2022/09/10 00:50:20;;;;;;;24.80;13.60;;;;;;;16.55;67.49;100810.88;5202656;28;20443;-42
2022/09/10 00:53:01;;;;;;;25.02;12.48;;;;;;;16.50;67.33;100802.59;5200532;28;20481;-43
2022/09/10 00:55:35;;;;;;;22.33;14.75;;;;;;;16.58;67.43;100815.81;5202237;28;20059;-43
2022/09/10 00:58:10;;;;;;;24.98;14.52;;;;;;;16.64;67.44;100816.91;5204874;28;20409;-44
2022/09/10 01:00:42;;;;;;;21.33;12.25;;;;;;;16.63;67.49;100804.59;5202469;28;20923;-42
2022/09/10 01:03:18;;;;;;;22.40;14.40;;;;;;;16.67;67.65;100805.03;5200892;28;20106;-43
2022/09/10 01:05:51;;;;;;;23.00;14.45;;;;;;;16.69;67.53;100805.66;5201299;28;20170;-46
2022/09/10 01:08:26;;;;;;;;;;;;;;;16.67;67.51;100808.53;5191459;28;20104;-44
2022/09/10 01:11:10;;;;;;;17.67;12.05;;;;;;;16.69;67.51;100805.66;5192946;28;19974;-45
2022/09/10 01:14:04;;;;;;;18.05;9.80;;;;;;;16.68;67.64;100809.34;5194907;28;20477;-41
2022/09/10 01:16:45;;;;;;;20.13;11.07;;;;;;;16.65;67.75;100807.06;5200333;28;20369;-45
2022/09/10 01:19:40;;;;;;;16.05;9.80;;;;;;;16.60;67.84;100797.81;5198379;28;20365;-43
2022/09/10 01:22:24;;;;;;;21.75;11.23;;;;;;;16.65;67.69;100810.56;5178603;28;20543;-41
2022/09/10 01:25:03;;;;;;;23.27;8.48;;;;;;;16.57;67.76;100808.84;5188880;28;20137;-42
2022/09/10 01:27:42;;;;;;;13.88;6.60;;;;;;;16.62;67.47;100818.94;5195369;28;20250;-42
2022/09/10 01:30:19;;;;;;;17.77;7.88;;;;;;;16.57;67.71;100803.53;5192483;28;20152;-41
2022/09/10 01:33:00;;;;;;;13.18;5.82;;;;;;;16.58;67.47;100804.34;5188523;28;20045;-42
2022/09/10 01:35:39;;;;;;;15.40;7.13;;;;;;;16.53;67.58;100801.41;5192540;28;20106;-41
2022/09/10 01:38:18;;;;;;;11.68;6.55;;;;;;;16.63;67.54;100811.75;5187512;28;22655;-41
2022/09/10 01:40:52;;;;;;;15.48;5.97;;;;;;;16.48;67.68;100794.00;5185705;28;20048;-42
2022/09/10 01:43:27;;;;;;;11.02;5.63;;;;;;;16.57;67.69;100808.84;5194350;28;20371;-40
2022/09/10 01:46:21;;;;;;;14.52;4.50;;;;;;;16.49;67.60;100805.47;5193348;28;20131;-43
2022/09/10 01:49:12;;;;;;;10.85;4.93;;;;;;;16.52;67.68;100811.25;5189078;28;20167;-42
2022/09/10 01:52:11;;;;;;;18.52;7.75;;;;;;;16.46;67.56;100806.69;5197146;28;20066;-42
2022/09/10 01:54:56;;;;;;;18.35;7.60;;;;;;;16.52;67.83;100816.56;5194038;28;20103;-41
2022/09/10 01:57:40;;;;;;;22.17;9.48;;;;;;;16.50;67.73;100823.94;5183645;28;20587;-44
2022/09/10 02:00:17;;;;;;;12.30;8.45;;;;;;;16.51;67.67;100824.78;5192251;28;20453;-39
2022/09/10 02:02:56;;;;;;;21.27;10.43;;;;;;;16.52;67.65;100808.59;5188046;28;20174;-42
2022/09/10 02:05:34;;;;;;;18.98;10.05;;;;;;;16.53;67.57;100807.56;5195061;28;20487;-40
2022/09/10 02:08:16;;;;;;;20.83;11.90;;;;;;;16.37;67.55;100781.16;5193983;28;20381;-41
2022/09/10 02:10:52;;;;;;;20.13;11.45;;;;;;;16.53;67.59;100802.22;5194770;28;20052;-45
2022/09/10 02:17:12;;;;;;;24.85;14.10;;;;;;;16.49;67.59;100808.13;5193239;28;20389;-41
2022/09/10 02:19:54;;;;;;;21.30;10.82;;;;;;;16.43;67.49;100806.22;5192423;28;20373;-42
2022/09/10 02:22:29;;;;;;;22.73;12.63;;;;;;;16.53;67.43;100820.06;5192368;28;20040;-41
2022/09/10 02:25:01;;;;;;;20.48;12.63;;;;;;;16.50;67.46;100818.59;5188147;28;20073;-41
2022/09/10 02:27:34;;;;;;;18.52;12.95;;;;;;;16.53;67.47;100818.22;5194765;28;20536;-42
2022/09/10 02:30:08;;;;;;;23.25;13.80;;;;;;;16.49;67.26;100814.28;5191201;28;20131;-44
2022/09/10 02:32:42;;;;;;;20.95;13.00;;;;;;;16.55;67.51;100821.53;5189112;28;20083;-43
2022/09/10 02:35:15;;;;;;;21.05;11.57;;;;;;;16.53;67.29;100812.88;5193816;28;20347;-40
2022/09/10 02:37:49;;;;;;;23.70;12.43;;;;;;;16.56;67.26;100817.84;5200411;28;20128;-41
2022/09/10 02:40:21;;;;;;;19.80;11.60;;;;;;;16.48;67.32;100817.97;5203546;28;20051;-39
2022/09/10 02:42:54;;;;;;;17.42;11.43;;;;;;;16.49;67.45;100818.81;5199193;28;20063;-41
2022/09/10 02:45:27;;;;;;;19.02;12.85;;;;;;;16.48;67.55;100814.50;5199137;28;20052;-41
2022/09/10 02:48:26;;;;;;;24.27;13.75;;;;;;;16.47;67.62;100818.97;5195589;28;20079;-41
2022/09/10 02:50:59;;;;;;;22.23;11.82;;;;;;;16.50;67.30;100828.44;5190203;28;20537;-42
2022/09/10 02:53:32;;;;;;;23.58;15.38;;;;;;;16.49;67.49;100814.28;5199167;28;20041;-41
2022/09/10 02:56:06;;;;;;;18.70;11.73;;;;;;;16.47;67.43;100807.50;5199904;28;20072;-43
2022/09/10 02:58:39;;;;;;;22.75;13.18;;;;;;;16.52;67.41;100815.75;5192075;28;20051;-39
2022/09/10 03:01:14;;;;;;;21.63;14.52;;;;;;;16.53;67.32;100812.88;5197088;28;20049;-40
2022/09/10 03:03:53;;;;;;;21.63;13.85;;;;;;;16.47;67.29;100796.81;5190963;28;20087;-40
2022/09/10 03:06:26;;;;;;;17.27;13.57;;;;;;;16.46;67.34;100801.34;5195452;28;20071;-38
2022/09/10 03:09:00;;;;;;;27.38;15.48;;;;;;;16.58;67.30;100815.81;5201689;28;20478;-41
2022/09/10 03:11:33;;;;;;;24.88;16.75;;;;;;;16.55;67.28;100810.88;5203629;28;20048;-42
2022/09/10 03:14:07;;;;;;;28.48;18.02;;;;;;;16.60;67.17;100805.81;5203537;28;21597;-44
2022/09/10 03:16:40;;;;;;;27.73;17.98;;;;;;;16.60;67.31;100802.31;5206690;28;20040;-41
2022/09/10 03:19:14;;;;;;;22.67;17.85;;;;;;;16.61;67.37;100809.28;5205531;28;20056;-40
2022/09/10 03:21:46;;;;;;;21.10;16.05;;;;;;;16.60;67.33;100810.31;5204279;28;20347;-43
2022/09/10 03:24:19;;;;;;;25.70;15.50;;;;;;;16.56;67.16;100790.38;5202072;28;20579;-40
2022/09/10 03:26:51;;;;;;;29.08;18.45;;;;;;;16.62;67.31;100810.13;5206880;28;20438;-39
2022/09/10 03:29:25;;;;;;;19.35;14.25;;;;;;;16.59;67.06;100806.81;5200309;28;20043;-39
2022/09/10 03:31:57;;;;;;;29.00;16.58;;;;;;;16.51;67.25;100793.63;5200831;28;20076;-42
2022/09/10 03:35:02;;;;;;;23.15;17.73;;;;;;;16.62;67.25;100810.13;5210354;28;20076;-40
2022/09/10 03:37:34;;;;;;;28.08;18.08;;;;;;;16.50;67.19;100797.28;5203516;28;20048;-41
2022/09/10 03:40:09;;;;;;;28.90;18.75;;;;;;;16.58;67.22;100809.66;5200684;28;20417;-42
2022/09/10 03:42:42;;;;;;;24.13;17.15;;;;;;;16.55;67.18;100810.88;5214022;28;20052;-41
2022/09/10 03:49:01;;;;;;;33.45;21.85;;;;;;;16.51;67.27;100814.94;5203499;28;20468;-40
2022/09/10 03:51:35;;;;;;;28.17;20.98;;;;;;;16.51;67.20;100809.59;5195836;28;20425;-41
2022/09/10 03:54:07;;;;;;;31.88;19.73;;;;;;;16.55;67.29;100810.88;5200617;28;20483;-48
2022/09/10 03:56:40;;;;;;;31.70;22.55;;;;;;;16.48;67.36;100796.66;5203785;28;20048;-41
2022/09/10 03:59:13;;;;;;;32.95;22.08;;;;;;;16.57;67.29;100814.19;5200749;28;20513;-42
2022/09/10 04:01:46;;;;;;;34.33;22.05;;;;;;;16.59;67.10;100812.13;5198420;28;20037;-42
2022/09/10 04:04:19;;;;;;;;;;;;;;;16.60;67.10;100813.81;5201383;28;20366;-42
2022/09/10 04:06:54;;;;;;;28.53;19.63;;;;;;;16.62;67.01;100812.78;5199240;28;20321;-39
2022/09/10 04:13:51;;;;;;;33.58;24.02;;;;;;;16.63;67.06;100812.59;5196357;28;20072;-45
2022/09/10 04:16:23;;;;;;;38.58;25.35;;;;;;;16.61;67.29;100814.63;5190388;28;20155;-41
2022/09/10 04:18:56;;;;;;;41.28;27.73;;;;;;;16.60;67.35;100821.81;5219778;28;20098;-40
2022/09/10 04:21:28;;;;;;;39.40;25.80;;;;;;;16.52;67.14;100813.91;5188155;28;20128;-41
2022/09/10 04:24:03;;;;;;;52.45;27.75;;;;;;;16.58;67.03;100821.16;5205170;28;20040;-42
2022/09/10 04:26:35;;;;;;;45.67;27.88;;;;;;;16.62;66.93;100821.59;5196798;28;20114;-41
2022/09/10 04:29:08;;;;;;;36.75;24.55;;;;;;;16.74;67.05;100829.94;5202157;28;20600;-39
2022/09/10 04:31:41;;;;;;;38.53;25.65;;;;;;;16.75;67.09;100834.22;5198842;28;20524;-43
2022/09/10 04:34:13;;;;;;;38.83;23.40;;;;;;;16.70;67.00;100818.81;5195289;28;20463;-37
2022/09/10 04:36:45;;;;;;;38.88;24.42;;;;;;;16.80;66.91;100831.88;5198808;28;20129;-40
2022/09/10 04:39:19;;;;;;;40.05;23.35;;;;;;;16.80;67.09;100829.19;5201632;28;20471;-43
2022/09/10 04:41:52;;;;;;;43.38;24.25;;;;;;;16.82;66.95;100840.50;5193663;28;20471;-41
2022/09/10 04:44:25;;;;;;;39.30;25.42;;;;;;;16.76;66.96;100827.94;5199296;28;20461;-42
2022/09/10 04:46:57;;;;;;;36.28;25.15;;;;;;;16.88;66.95;100837.09;5201870;28;20477;-38
2022/09/10 04:49:30;;;;;;;38.08;24.90;;;;;;;16.83;67.22;100844.81;5202397;28;20055;-43
2022/09/10 04:52:03;;;;;;;36.30;23.00;;;;;;;16.82;67.32;100848.50;5201103;28;20178;-41
2022/09/10 04:54:37;;;;;;;;;;;;;;;16.78;67.49;100842.69;5202658;28;20122;-42
2022/09/10 04:57:09;;;;;;;39.15;24.20;;;;;;;16.72;67.77;100835.47;5205763;28;20500;-41
2022/09/10 04:59:42;;;;;;;36.47;25.85;;;;;;;16.70;67.73;100845.47;5203531;28;20056;-43
2022/09/10 05:02:14;;;;;;;37.22;25.48;;;;;;;16.71;67.78;100846.31;5201929;28;20162;-39
2022/09/10 05:04:47;;;;;;;40.90;24.77;;;;;;;16.71;67.72;100846.31;5195677;28;20524;-41
2022/09/10 05:07:19;;;;;;;36.30;23.95;;;;;;;16.77;67.87;100853.59;5202052;28;20060;-41
2022/09/10 05:09:54;;;;;;;33.03;22.63;;;;;;;16.80;67.74;100855.88;5201011;28;20095;-39
2022/09/10 05:12:26;;;;;;;33.28;23.60;;;;;;;16.81;67.78;100862.84;5180198;28;20045;-38
2022/09/10 05:14:58;;;;;;;44.45;25.52;;;;;;;16.89;67.74;100860.06;5198492;28;20490;-42
2022/09/10 05:17:32;;;;;;;42.00;25.02;;;;;;;16.87;67.67;100843.41;5197013;28;20044;-40
2022/09/10 05:20:06;;;;;;;40.65;25.80;;;;;;;16.96;67.77;100854.78;5200431;28;20052;-41
2022/09/10 05:22:39;;;;;;;36.83;22.55;;;;;;;16.96;67.46;100865.44;5202898;28;20037;-43
2022/09/10 05:25:12;;;;;;;36.83;24.73;;;;;;;16.96;67.75;100863.59;5198177;28;20037;-45
2022/09/10 05:27:45;;;;;;;39.17;26.95;;;;;;;16.96;67.50;100860.94;5195702;28;20315;-45
2022/09/10 05:30:18;;;;;;;45.72;26.55;;;;;;;16.94;67.84;100863.00;5196159;28;20057;-41
2022/09/10 05:32:52;;;;;;;48.38;26.83;;;;;;;16.92;67.81;100873.00;5194705;28;20557;-43
2022/09/10 05:35:24;;;;;;;47.22;28.30;;;;;;;16.83;68.38;100866.16;5194570;28;20143;-46
2022/09/10 05:37:58;;;;;;;48.13;26.85;;;;;;;16.78;68.70;100861.38;5193902;28;20459;-43
2022/09/10 05:40:32;;;;;;;41.00;27.02;;;;;;;16.74;69.08;100865.41;5197528;28;20127;-45
2022/09/10 05:43:04;;;;;;;44.30;27.10;;;;;;;16.70;69.14;100866.81;5199928;28;20525;-42
2022/09/10 05:45:37;;;;;;;47.50;27.38;;;;;;;16.68;69.40;100873.34;5194127;28;20342;-44
2022/09/10 05:48:09;;;;;;;40.53;26.33;;;;;;;16.63;69.67;100876.59;5206726;28;20047;-41
2022/09/10 05:50:44;;;;;;;46.33;26.05;;;;;;;16.54;69.60;100864.41;5201506;28;20136;-42
2022/09/10 05:53:16;;;;;;;47.45;27.13;;;;;;;16.59;69.56;100875.31;5199995;28;20064;-44
2022/09/10 05:55:50;;;;;;;45.28;28.75;;;;;;;16.75;69.44;100880.41;5199680;28;20187;-44
2022/09/10 06:02:15;;;;;;;39.50;23.83;;;;;;;17.12;68.80;100869.69;5208018;28;20083;-39
2022/09/10 06:04:47;;;;;;;39.95;23.38;;;;;;;17.29;68.63;100881.75;5200741;28;20090;-46
2022/09/10 06:07:20;;;;;;;38.85;25.27;;;;;;;17.38;68.49;100875.28;5202521;28;20048;-41
2022/09/10 06:09:52;;;;;;;36.15;23.92;;;;;;;17.55;68.45;100888.31;5196297;28;20082;-33
2022/09/10 06:12:27;;;;;;;35.97;23.05;;;;;;;17.62;68.21;100876.69;5195831;28;20427;-41
2022/09/10 06:14:59;;;;;;;37.97;21.88;;;;;;;17.80;68.16;100886.88;5196445;28;20113;-47
2022/09/10 06:17:32;;;;;;;33.97;22.23;;;;;;;17.75;68.10;100891.97;5197676;28;20079;-47
2022/09/10 06:20:06;;;;;;;35.70;23.05;;;;;;;17.69;68.16;100898.91;5195695;28;20045;-40
2022/09/10 06:22:39;;;;;;;35.25;22.67;;;;;;;17.69;68.45;100903.44;5202536;28;20063;-42
2022/09/10 06:25:12;;;;;;;30.00;22.48;;;;;;;17.63;68.43;100905.03;5203568;28;20059;-44
2022/09/10 06:27:45;;;;;;;35.10;21.92;;;;;;;17.58;68.45;100906.63;5203584;28;20521;-41
2022/09/10 06:30:20;;;;;;;35.00;24.83;;;;;;;17.45;69.11;100918.84;5195984;28;20560;-42
2022/09/10 06:32:52;;;;;;;33.10;25.45;;;;;;;17.47;69.50;100927.50;5211824;28;20481;-40
2022/09/10 06:35:26;;;;;;;29.75;23.58;;;;;;;17.74;69.04;100922.34;5189895;28;20444;-44
2022/09/10 06:37:58;;;;;;;;;;;;;;;18.35;68.05;100941.25;5204065;28;20040;-40
2022/09/10 06:40:31;;;;;;;25.08;19.05;;;;;;;18.86;67.28;100924.81;5203935;28;19920;-41
2022/09/10 06:43:05;;;;;;;22.75;16.67;;;;;;;19.29;66.46;100923.63;5207097;28;20044;-38
2022/09/10 06:45:40;;;;;;;19.95;16.42;;;;;;;19.61;66.29;100940.75;5197059;28;20071;-40
2022/09/10 06:48:12;;;;;;;23.15;16.92;;;;;;;20.03;65.83;100939.47;5198300;28;20044;-39
2022/09/10 06:50:55;;;;;;;25.83;16.77;;;;;;;20.29;65.36;100947.69;5204006;28;20381;-38
2022/09/10 06:53:32;;;;;;;19.90;15.90;;;;;;;20.07;65.50;100934.53;5199985;28;20334;-41
2022/09/10 06:56:07;;;;;;;19.95;14.30;;;;;;;19.70;66.04;100955.63;5203632;28;20044;-43
2022/09/10 06:58:41;;;;;;;26.13;18.40;;;;;;;19.29;66.46;100940.56;5195092;28;20467;-39
2022/09/10 07:01:17;;;;;;;22.30;17.50;;;;;;;19.06;67.03;100951.63;5196797;28;20474;-43
2022/09/10 07:03:56;;;;;;;23.40;17.52;;;;;;;19.11;66.89;100940.31;5213844;28;20375;-43
2022/09/10 07:06:33;;;;;;;26.60;18.55;;;;;;;19.20;66.76;100960.50;5213591;28;20061;-47
2022/09/10 07:09:06;;;;;;;25.85;19.35;;;;;;;19.08;66.93;100962.13;5208562;28;20421;-40
2022/09/10 07:11:39;;;;;;;21.75;17.02;;;;;;;19.64;66.40;100959.13;5207507;28;20435;-41
2022/09/10 07:14:13;;;;;;;21.38;15.23;;;;;;;21.08;64.56;100960.75;5207535;28;20459;-42
2022/09/10 07:16:46;;;;;;;22.20;14.63;;;;;;;21.60;63.46;100964.13;5205342;28;20123;-41
2022/09/10 07:19:19;;;;;;;15.02;12.40;;;;;;;22.71;62.89;100964.22;5202147;28;20195;-43
2022/09/10 07:21:52;;;;;;;14.20;12.52;;;;;;;23.84;61.15;100965.25;5206134;28;20417;-41
2022/09/10 07:24:24;;;;;;;15.32;11.90;;;;;;;24.25;60.86;100980.50;5200532;28;20469;-41
2022/09/10 07:26:56;;;;;;;14.82;12.50;;;;;;;24.05;60.63;100986.25;5204828;28;20570;-44
2022/09/10 07:29:30;;;;;;;16.08;11.27;;;;;;;24.29;60.45;100987.03;5206846;28;20044;-40
2022/09/10 07:32:04;;;;;;;13.57;12.18;;;;;;;25.42;59.00;100991.94;5199570;28;20122;-39
2022/09/10 07:34:37;;;;;;;15.93;10.85;;;;;;;26.24;57.14;100994.03;5204877;28;20040;-41
2022/09/10 07:37:10;;;;;;;13.05;11.00;;;;;;;26.61;56.66;100979.91;5209950;28;20186;-40
2022/09/10 07:39:42;;;;;;;;;;;;;;;26.58;55.91;100989.38;5185657;28;20052;-43
2022/09/10 07:42:15;;;;;;;11.70;10.50;;;;;;;25.98;56.49;100991.00;5198278;28;19920;-41
2022/09/10 07:44:49;;;;;;;14.50;10.40;;;;;;;25.04;57.25;100996.13;5213875;28;20381;-40
2022/09/10 07:47:22;;;;;;;16.65;11.18;;;;;;;24.51;57.63;100992.66;5206479;28;20048;-40
2022/09/10 07:49:55;;;;;;;15.13;10.57;;;;;;;24.02;57.62;101000.19;5211680;28;20127;-41
2022/09/10 07:52:28;;;;;;;11.43;9.85;;;;;;;23.17;58.10;100997.81;5203560;28;20129;-42
2022/09/10 07:55:01;;;;;;;12.98;11.25;;;;;;;22.39;58.53;101012.88;5212953;28;20384;-40
2022/09/10 07:57:36;;;;;;;16.30;12.27;;;;;;;21.68;59.42;101015.94;5213652;28;20052;-39
2022/09/10 08:00:15;;;;;;;18.95;11.93;;;;;;;21.46;59.74;101019.00;5195232;28;20431;-43
2022/09/10 08:02:48;;;;;;;13.60;10.60;;;;;;;21.29;60.12;101029.44;5197670;28;20087;-40
2022/09/10 08:05:21;;;;;;;12.07;10.32;;;;;;;21.40;59.87;101019.91;5198135;28;20121;-43
2022/09/10 08:07:54;;;;;;;11.23;9.90;;;;;;;22.12;58.57;101025.72;5202101;28;20338;-42
2022/09/10 08:10:26;;;;;;;;;;;;;;;22.22;57.72;101028.75;5199142;28;20182;-38
2022/09/10 08:12:59;;;;;;;15.95;10.80;;;;;;;21.57;58.57;101037.13;5202045;27;20273;-39
2022/09/10 08:15:34;;;;;;;17.00;10.80;;;;;;;21.13;59.60;101041.50;5199381;28;20607;-41
2022/09/10 08:18:07;;;;;;;14.23;11.55;;;;;;;20.85;60.08;101049.06;5195678;28;20426;-43
2022/09/10 08:20:40;;;;;;;12.18;10.63;;;;;;;20.49;60.44;101035.09;5201298;28;20109;-40
2022/09/10 08:23:12;;;;;;;14.13;10.68;;;;;;;20.87;60.31;101052.34;5201573;28;20064;-49
2022/09/10 08:25:51;;;;;;;12.68;11.15;;;;;;;21.23;59.32;101059.00;5203617;28;20067;-37
2022/09/10 08:28:24;;;;;;;10.13;8.80;;;;;;;21.41;58.99;101067.22;5198026;28;20049;-30
2022/09/10 08:31:00;;;;;;;15.15;9.70;;;;;;;21.77;58.49;101063.88;5198390;28;20036;-40
2022/09/10 08:33:33;;;;;;;13.80;10.05;;;;;;;22.33;57.80;101062.19;5198663;28;20114;-38
2022/09/10 08:36:09;;;;;;;11.75;10.05;;;;;;;22.24;57.03;101077.78;5198079;28;20055;-44
2022/09/10 08:38:43;;;;;;;21.70;11.15;;;;;;;21.84;57.99;101075.41;5197580;28;20053;-44
2022/09/10 08:41:31;;;;;;;12.90;10.63;;;;;;;21.87;57.91;101074.97;5201020;28;20041;-40
2022/09/10 08:44:07;;;;;;;11.60;9.13;;;;;;;22.09;57.63;101077.28;5196364;28;20047;-41
2022/09/10 08:46:48;;;;;;;10.93;8.35;;;;;;;22.35;57.08;101091.56;5199653;28;20131;-42
2022/09/10 08:49:34;;;;;;;11.93;9.48;;;;;;;22.01;56.85;101097.19;5200762;28;20151;-40
2022/09/10 08:52:18;;;;;;;11.13;7.32;;;;;;;21.35;57.53;101097.59;5196479;28;20098;-43
2022/09/10 08:55:00;;;;;;;13.27;8.30;;;;;;;20.89;58.63;101110.16;5196390;28;20059;-40
2022/09/10 08:57:38;;;;;;;13.80;8.48;;;;;;;20.94;58.92;101113.06;5194894;28;20327;-37
2022/09/10 09:00:16;;;;;;;17.02;9.18;;;;;;;21.22;58.21;101109.22;5196704;28;20081;-38
2022/09/10 09:02:58;;;;;;;10.60;8.00;;;;;;;21.50;57.76;101114.28;5196244;28;20052;-42
2022/09/10 09:05:43;;;;;;;9.60;7.03;;;;;;;21.52;57.66;101119.44;5190451;28;20041;-40
2022/09/10 09:08:20;;;;;;;11.18;6.32;;;;;;;22.12;56.47;101110.97;5196895;28;20045;-40
2022/09/10 09:11:02;;;;;;;7.95;5.55;;;;;;;23.28;54.07;101115.59;5197829;28;20466;-44
2022/09/10 09:14:04;;;;;;;7.15;5.28;;;;;;;23.95;52.39;101115.50;5194055;28;20075;-38
2022/09/10 09:16:52;;;;;;;7.70;3.65;;;;;;;24.10;51.42;101117.75;5193204;28;20378;-42
2022/09/10 09:19:33;;;;;;;4.32;3.47;;;;;;;23.83;50.81;101112.78;5189934;28;20113;-37
2022/09/10 09:22:15;;;;;;;8.00;3.10;;;;;;;23.72;51.13;101120.81;5191326;28;20102;-43
2022/09/10 09:24:56;;;;;;;4.47;3.05;;;;;;;23.82;50.59;101119.22;5191342;28;20377;-42
2022/09/10 09:27:34;;;;;;;4.07;3.53;;;;;;;23.44;50.95;101128.47;5190514;28;20048;-41
2022/09/10 09:30:17;;;;;;;4.68;3.45;;;;;;;23.15;52.02;101137.31;5197135;28;20040;-41
2022/09/10 09:32:51;;;;;;;5.22;3.33;;;;;;;23.20;52.36;101138.31;5195231;28;20043;-38
2022/09/10 09:35:32;;;;;;;5.80;3.88;;;;;;;23.06;52.28;101142.19;5195723;28;20047;-42
2022/09/10 09:38:19;;;;;;;5.88;3.80;;;;;;;22.58;52.88;101133.97;5197035;27;20048;-40
2022/09/10 09:40:56;;;;;;;6.65;4.43;;;;;;;22.72;53.09;101138.19;5200642;28;20046;-39
2022/09/10 09:43:49;;;;;;;6.53;4.95;;;;;;;22.84;52.51;101144.47;5207095;28;20484;-40
2022/09/10 09:46:23;;;;;;;9.27;5.35;;;;;;;22.86;52.90;101149.66;5198758;28;20443;-43
2022/09/10 09:48:58;;;;;;;9.75;6.40;;;;;;;23.13;52.74;101152.88;5194519;28;20040;-40
2022/09/10 09:51:34;;;;;;;7.93;5.80;;;;;;;23.24;52.75;101155.66;5194517;28;20044;-41
2022/09/10 09:54:14;;;;;;;10.13;5.70;;;;;;;22.88;53.25;101161.00;5199822;28;20040;-40
2022/09/10 09:56:49;;;;;;;14.40;6.03;;;;;;;22.61;53.76;101160.44;5200388;28;20138;-46
2022/09/10 09:59:28;;;;;;;14.43;5.35;;;;;;;22.47;54.28;101171.34;5199344;28;20056;-45
2022/09/10 10:02:10;;;;;;;9.27;5.78;;;;;;;22.36;53.92;101169.38;5193856;28;20109;-45
2022/09/10 10:04:56;;;;;;;7.63;6.00;;;;;;;22.45;54.10;101162.69;5204321;28;20067;-41
2022/09/10 10:07:32;;;;;;;9.25;5.78;;;;;;;22.35;53.79;101177.66;5194358;28;20512;-46
2022/09/10 10:10:07;;;;;;;10.73;6.40;;;;;;;21.99;54.67;101173.72;5201612;28;20725;-45
2022/09/10 10:12:48;;;;;;;9.85;6.07;;;;;;;21.67;55.24;101175.59;5199211;28;20489;-41
2022/09/10 10:15:36;;;;;;;8.18;5.97;;;;;;;21.89;55.33;101182.28;5200539;28;20044;-40
2022/09/10 10:18:30;;;;;;;8.25;5.80;;;;;;;22.37;54.72;101183.66;5199319;28;20511;-46
2022/09/10 10:21:16;;;;;;;12.50;6.35;;;;;;;22.60;53.65;101180.34;5196069;28;20045;-43
2022/09/10 10:23:50;;;;;;;7.70;6.57;;;;;;;22.38;54.02;101188.81;5196299;28;20089;-41
2022/09/10 10:26:30;;;;;;;8.65;5.88;;;;;;;22.27;54.36;101189.53;5197059;28;20178;-43
2022/09/10 10:29:07;;;;;;;8.38;5.18;;;;;;;22.32;54.51;101189.69;5187404;28;20052;-44
2022/09/10 10:31:42;;;;;;;7.32;5.70;;;;;;;22.59;53.84;101189.47;5200119;28;20051;-44
2022/09/10 10:34:37;;;;;;;7.95;4.47;;;;;;;22.86;53.50;101196.25;5200352;28;20404;-43
2022/09/10 10:37:16;;;;;;;7.97;5.22;;;;;;;22.96;52.70;101201.97;5197889;28;20037;-43
2022/09/10 10:40:13;;;;;;;7.90;4.43;;;;;;;22.58;53.52;101202.09;5196545;28;20519;-44
2022/09/10 10:42:54;;;;;;;7.05;5.03;;;;;;;22.51;53.64;101194.06;5193381;28;20056;-45
2022/09/10 10:45:51;;;;;;;10.90;5.97;;;;;;;23.01;53.01;101204.84;5188978;28;20444;-39
2022/09/10 10:48:43;;;;;;;7.85;4.95;;;;;;;23.27;52.59;101197.50;5192816;28;20048;-41
2022/09/10 10:51:24;;;;;;;8.40;5.30;;;;;;;23.52;52.08;101200.09;5194785;28;20501;-44
2022/09/10 10:54:23;;;;;;;8.48;4.00;;;;;;;23.75;51.72;101196.69;5190668;28;20053;-44
2022/09/10 10:57:10;;;;;;;15.88;3.60;;;;;;;23.70;50.84;101207.38;5195927;28;20473;-41
2022/09/10 10:59:54;;;;;;;19.90;6.05;;;;;;;23.44;51.70;101214.72;5201286;28;20044;-43
2022/09/10 11:02:39;;;;;;;7.47;3.80;;;;;;;23.54;51.78;101218.75;5196721;28;20423;-47
2022/09/10 11:05:24;;;;;;;9.75;4.60;;;;;;;23.86;51.28;101200.50;5195838;28;20044;-44
2022/09/10 11:07:59;;;;;;;8.75;5.00;;;;;;;23.90;51.37;101212.47;5190726;28;20453;-44
2022/09/10 11:10:38;;;;;;;9.90;5.53;;;;;;;23.72;51.67;101213.34;5201400;28;20044;-42
2022/09/10 11:13:20;;;;;;;8.63;5.20;;;;;;;23.61;52.11;101225.69;5200480;28;20060;-43
2022/09/10 11:16:00;;;;;;;8.07;4.70;;;;;;;23.34;52.26;101227.88;5196734;28;20120;-41
2022/09/10 11:18:38;;;;;;;3.90;3.50;;;;;;;23.15;52.43;101223.53;5194618;28;20036;-43
2022/09/10 11:21:18;;;;;;;5.85;3.47;;;;;;;23.12;52.58;101218.59;5196568;28;20071;-46
2022/09/10 11:23:57;;;;;;;9.57;5.18;;;;;;;23.08;51.92;101225.50;5198648;28;20405;-40
2022/09/10 11:26:36;;;;;;;7.63;4.13;;;;;;;22.68;52.21;101242.00;5194050;28;20097;-45
2022/09/10 11:29:30;;;;;;;10.10;4.90;;;;;;;22.18;53.13;101239.25;5202096;28;20469;-44
2022/09/10 11:32:08;;;;;;;6.35;4.50;;;;;;;22.12;53.25;101242.78;5199558;28;20048;-41
2022/09/10 11:34:55;;;;;;;11.20;4.80;;;;;;;21.97;53.43;101246.56;5201114;28;20041;-42
2022/09/10 11:37:42;;;;;;;18.00;5.47;;;;;;;22.04;53.44;101246.53;5200083;28;20060;-42
2022/09/10 11:40:23;;;;;;;8.45;4.35;;;;;;;22.02;53.49;101244.06;5201748;28;20055;-42
2022/09/10 11:43:01;;;;;;;10.02;5.30;;;;;;;22.23;53.32;101245.63;5201307;28;20040;-43
2022/09/10 11:45:45;;;;;;;7.10;4.70;;;;;;;22.51;52.91;101242.50;5203684;28;20067;-42
2022/09/10 11:48:24;;;;;;;10.48;3.80;;;;;;;22.96;52.65;101245.06;5198449;28;20122;-40
2022/09/10 11:51:01;;;;;;;5.47;2.95;;;;;;;23.30;52.37;101234.78;5198376;28;20060;-43
2022/09/10 11:53:35;;;;;;;5.88;3.00;;;;;;;23.84;52.11;101238.47;5207124;28;20481;-43
2022/09/10 11:56:27;;;;;;;6.03;3.17;;;;;;;24.31;51.53;101237.81;5206819;28;20048;-45
2022/09/10 11:59:17;;;;;;;10.85;4.63;;;;;;;24.46;50.67;101248.22;5202693;28;20048;-45
2022/09/10 12:02:25;;;;;;;8.45;3.25;;;;;;;23.97;50.96;101250.16;5208444;28;20368;-43
2022/09/10 12:05:03;;;;;;;8.88;3.20;;;;;;;23.42;51.66;101251.84;5201276;28;20204;-46
2022/09/10 12:07:49;;;;;;;5.80;2.58;;;;;;;23.42;51.92;101254.53;5206786;28;20040;-40
2022/09/10 12:10:32;;;;;;;5.10;2.83;;;;;;;23.69;51.66;101259.63;5205070;28;20040;-45
2022/09/10 12:13:10;;;;;;;5.40;2.67;;;;;;;23.82;51.72;101262.19;5205333;28;20056;-42
2022/09/10 12:15:51;;;;;;;8.65;3.33;;;;;;;24.02;51.76;101258.38;5203712;28;20506;-41
2022/09/10 12:18:31;;;;;;;8.73;3.90;;;;;;;24.36;51.50;101262.25;5208438;28;20044;-43